Time;durP1;ratioP1;P1;durP2;ratioP2;P2;SDS_P1;SDS_P2;PMS_P1;PMS_P2;Temp;Humidity;BMP_temperature;BMP_pressure;BME280_temperature;BME280_humidity;BME280_pressure;Samples;Min_cycle;Max_cycle;Signal;HPM_P1;HPM_P2
2023/07/22 00:02:18;;;;;;;3.07;2.87;;;19.40;87.10;;;;;;10433611;28;20184;-90
2023/07/22 00:07:20;;;;;;;3.57;3.27;;;19.40;87.80;;;;;;10433511;28;20234;-89
2023/07/22 00:12:25;;;;;;;2.93;2.73;;;19.30;87.70;;;;;;10435489;28;20198;-92
2023/07/22 00:17:29;;;;;;;3.40;3.20;;;19.20;89.00;;;;;;10408926;28;20238;-88
2023/07/22 00:22:31;;;;;;;3.60;3.30;;;19.10;89.10;;;;;;10431010;28;20418;-87
2023/07/22 00:27:34;;;;;;;4.33;2.90;;;19.00;89.30;;;;;;10423790;28;20266;-87
2023/07/22 00:32:39;;;;;;;3.83;3.40;;;18.90;89.30;;;;;;10431301;28;20241;-86
2023/07/22 00:37:41;;;;;;;3.10;2.90;;;18.70;90.30;;;;;;10425901;28;20242;-89
2023/07/22 00:42:44;;;;;;;3.87;3.00;;;18.60;90.40;;;;;;10410054;28;20259;-91
2023/07/22 00:47:48;;;;;;;3.80;3.50;;;18.60;90.30;;;;;;10433926;28;20210;-89
2023/07/22 00:52:51;;;;;;;4.03;3.73;;;18.50;90.20;;;;;;10414192;28;20203;-90
2023/07/22 00:57:53;;;;;;;3.87;3.57;;;18.40;90.70;;;;;;10427089;28;20230;-91
2023/07/22 01:02:57;;;;;;;3.93;3.63;;;18.30;90.70;;;;;;10432084;28;20191;-90
2023/07/22 01:07:59;;;;;;;4.43;3.90;;;18.30;90.80;;;;;;10441747;28;20215;-90
2023/07/22 01:13:02;;;;;;;3.70;3.40;;;18.20;91.00;;;;;;10437783;28;20226;-88
2023/07/22 01:18:06;;;;;;;3.80;3.50;;;18.20;91.10;;;;;;10420312;28;20252;-91
2023/07/22 01:23:10;;;;;;;3.70;3.40;;;18.30;90.80;;;;;;10432916;28;20771;-89
2023/07/22 01:28:13;;;;;;;4.00;3.70;;;18.20;91.00;;;;;;10436629;28;20223;-88
2023/07/22 01:33:15;;;;;;;4.07;3.67;;;18.20;91.30;;;;;;10422743;28;20229;-90
2023/07/22 01:38:19;;;;;;;4.40;4.10;;;18.10;91.30;;;;;;10426457;28;20223;-89
2023/07/22 01:43:21;;;;;;;4.57;4.13;;;18.10;91.40;;;;;;10425203;28;20192;-87
2023/07/22 01:48:24;;;;;;;4.43;4.03;;;18.00;91.80;;;;;;10436738;28;20198;-90
2023/07/22 01:53:28;;;;;;;4.03;3.70;;;18.00;91.70;;;;;;10428165;28;20268;-89
2023/07/22 01:58:30;;;;;;;3.90;3.63;;;17.90;91.70;;;;;;10419555;28;20219;-90
2023/07/22 02:03:32;;;;;;;3.53;3.27;;;17.90;91.90;;;;;;10409032;28;20198;-87
2023/07/22 02:08:36;;;;;;;3.67;3.47;;;17.90;91.80;;;;;;10392086;28;20304;-91
2023/07/22 02:13:39;;;;;;;3.60;3.30;;;17.80;92.10;;;;;;10435865;28;20198;-88
2023/07/22 02:18:47;;;;;;;5.27;4.47;;;17.80;92.20;;;;;;10431913;28;20233;-90
2023/07/22 02:23:51;;;;;;;4.20;3.90;;;17.80;92.40;;;;;;10441517;28;20204;-88
2023/07/22 02:28:54;;;;;;;3.50;3.30;;;17.80;92.30;;;;;;10432307;28;20215;-86
2023/07/22 02:33:57;;;;;;;3.43;3.03;;;17.80;92.00;;;;;;10440237;28;20224;-88
2023/07/22 02:39:00;;;;;;;3.67;3.47;;;17.80;92.20;;;;;;10424114;28;20234;-90
2023/07/22 02:44:03;;;;;;;3.53;3.33;;;17.80;91.70;;;;;;10440567;28;20209;-89
2023/07/22 02:49:06;;;;;;;3.77;3.47;;;17.80;92.30;;;;;;10427530;28;20226;-86
2023/07/22 02:54:09;;;;;;;3.53;3.23;;;17.80;92.30;;;;;;10437584;28;20226;-88
2023/07/22 02:59:12;;;;;;;6.50;3.43;;;17.80;92.20;;;;;;10428446;28;20237;-88
2023/07/22 03:04:14;;;;;;;4.10;3.83;;;17.70;92.30;;;;;;10411436;28;20199;-88
2023/07/22 03:09:17;;;;;;;4.00;3.60;;;17.70;92.20;;;;;;10425845;28;20322;-88
2023/07/22 03:14:22;;;;;;;3.70;3.40;;;17.70;92.30;;;;;;10435888;28;20221;-90
2023/07/22 03:19:24;;;;;;;4.57;4.23;;;17.60;92.40;;;;;;10423771;28;20220;-89
2023/07/22 03:24:28;;;;;;;3.10;2.90;;;17.60;92.50;;;;;;10432145;28;20257;-89
2023/07/22 03:29:30;;;;;;;4.40;4.10;;;17.60;92.60;;;;;;10428338;28;20215;-87
2023/07/22 03:34:33;;;;;;;3.10;2.90;;;17.60;92.50;;;;;;10429807;28;20235;-88
2023/07/22 03:39:36;;;;;;;3.60;3.40;;;17.60;92.60;;;;;;10431300;28;20227;-87
2023/07/22 03:44:40;;;;;;;2.87;2.77;;;17.50;92.50;;;;;;10421691;28;20262;-88
2023/07/22 03:49:42;;;;;;;3.30;3.00;;;17.60;92.30;;;;;;10424087;28;20215;-86
2023/07/22 03:54:46;;;;;;;2.87;2.67;;;17.50;92.30;;;;;;10415050;28;20252;-89
2023/07/22 03:59:48;;;;;;;2.70;2.50;;;17.50;92.20;;;;;;10413421;28;20254;-87
2023/07/22 04:04:51;;;;;;;3.33;3.10;;;17.50;92.70;;;;;;10411194;28;20199;-86
2023/07/22 04:09:55;;;;;;;3.87;3.17;;;17.60;92.70;;;;;;10417294;28;20225;-88
2023/07/22 04:14:57;;;;;;;3.20;3.00;;;17.70;92.30;;;;;;10402380;28;20203;-87
2023/07/22 04:19:59;;;;;;;3.57;3.27;;;17.70;92.10;;;;;;10426136;28;20227;-86
2023/07/22 04:25:04;;;;;;;3.43;3.17;;;17.80;92.00;;;;;;10422814;28;20360;-86
2023/07/22 04:30:09;;;;;;;3.33;3.13;;;17.90;91.90;;;;;;10408915;28;20219;-87
2023/07/22 04:35:21;;;;;;;4.10;3.70;;;17.90;91.90;;;;;;10430924;28;20201;-87
2023/07/22 04:40:25;;;;;;;3.77;3.47;;;17.80;91.90;;;;;;10431701;28;20290;-87
2023/07/22 04:45:27;;;;;;;4.87;4.27;;;17.80;91.90;;;;;;10444197;28;20286;-87
2023/07/22 04:50:29;;;;;;;3.63;3.40;;;17.90;92.20;;;;;;10429723;28;20366;-88
2023/07/22 04:55:33;;;;;;;3.33;3.13;;;17.90;92.00;;;;;;10421245;28;20610;-86
2023/07/22 05:00:37;;;;;;;5.20;3.40;;;18.00;92.10;;;;;;10426317;28;20229;-87
2023/07/22 05:05:39;;;;;;;3.30;3.10;;;18.20;91.90;;;;;;10402060;28;20270;-87
2023/07/22 05:10:42;;;;;;;3.50;3.20;;;18.20;91.60;;;;;;10396080;28;20227;-87
2023/07/22 05:15:44;;;;;;;3.50;3.20;;;18.40;92.10;;;;;;10399216;28;20194;-87
2023/07/22 05:20:46;;;;;;;3.60;3.23;;;18.40;91.70;;;;;;10391361;28;20224;-87
2023/07/22 05:25:53;;;;;;;2.90;2.70;;;18.50;91.30;;;;;;10414042;28;20191;-87
2023/07/22 05:30:57;;;;;;;3.13;2.90;;;18.70;91.40;;;;;;10383234;28;20211;-87
2023/07/22 05:35:59;;;;;;;3.27;3.03;;;18.70;90.90;;;;;;10391157;28;20250;-87
2023/07/22 05:41:02;;;;;;;3.00;2.80;;;18.80;90.70;;;;;;10393099;28;20219;-87
2023/07/22 05:46:04;;;;;;;2.90;2.70;;;18.90;90.50;;;;;;10393629;28;20225;-87
2023/07/22 05:51:06;;;;;;;3.30;3.00;;;18.90;90.40;;;;;;10391722;28;20242;-87
2023/07/22 05:56:10;;;;;;;3.60;3.07;;;18.90;90.30;;;;;;10392765;28;20205;-87
2023/07/22 06:01:14;;;;;;;3.63;2.80;;;18.90;90.70;;;;;;10392544;28;20735;-88
2023/07/22 06:06:16;;;;;;;3.10;2.90;;;19.00;90.80;;;;;;10393250;28;20293;-88
2023/07/22 06:11:20;;;;;;;4.00;3.70;;;19.10;91.30;;;;;;10419158;28;20887;-88
2023/07/22 06:16:22;;;;;;;3.47;3.23;;;19.20;91.50;;;;;;10372805;28;20282;-88
2023/07/22 06:21:24;;;;;;;3.93;3.20;;;19.30;91.30;;;;;;10386780;28;20304;-88
2023/07/22 06:26:27;;;;;;;3.80;3.00;;;19.40;91.50;;;;;;10376689;28;20670;-87
2023/07/22 06:31:30;;;;;;;3.70;3.30;;;19.50;91.40;;;;;;10389930;28;20202;-88
2023/07/22 06:36:32;;;;;;;3.23;3.03;;;19.70;91.10;;;;;;10387803;28;20202;-88
2023/07/22 06:41:35;;;;;;;5.60;2.90;;;20.00;91.30;;;;;;10402304;28;20689;-88
2023/07/22 06:46:37;;;;;;;3.17;2.97;;;20.30;90.60;;;;;;10378859;28;20242;-87
2023/07/22 06:51:39;;;;;;;3.50;3.20;;;20.50;90.50;;;;;;10378683;28;20215;-87
2023/07/22 06:56:43;;;;;;;3.53;3.23;;;20.70;90.50;;;;;;10387156;28;20194;-87
2023/07/22 07:01:45;;;;;;;3.83;3.00;;;20.80;91.40;;;;;;10390507;28;20599;-87
2023/07/22 07:06:47;;;;;;;9.03;3.70;;;21.00;90.60;;;;;;10379354;28;20209;-88
2023/07/22 07:11:51;;;;;;;5.63;3.20;;;21.20;90.10;;;;;;10401299;28;20639;-88
2023/07/22 07:16:53;;;;;;;3.03;2.80;;;21.60;90.50;;;;;;10393216;28;20195;-88
2023/07/22 07:21:55;;;;;;;4.63;2.80;;;21.90;89.70;;;;;;10393060;28;20203;-89
2023/07/22 07:26:59;;;;;;;4.23;2.83;;;22.20;88.40;;;;;;10392044;28;20695;-88
2023/07/22 07:32:01;;;;;;;2.50;2.30;;;22.50;87.80;;;;;;10381439;28;20745;-88
2023/07/22 07:37:03;;;;;;;2.90;2.70;;;22.80;86.40;;;;;;10395688;28;20278;-88
2023/07/22 07:42:07;;;;;;;2.70;2.50;;;23.20;83.80;;;;;;10394381;28;20229;-88
2023/07/22 07:47:09;;;;;;;2.73;2.53;;;23.60;83.50;;;;;;10385588;28;20452;-88
2023/07/22 07:52:12;;;;;;;2.80;2.40;;;24.00;82.80;;;;;;10413097;28;20198;-88
2023/07/22 07:57:15;;;;;;;4.20;2.83;;;24.30;79.80;;;;;;10391044;28;20199;-88
2023/07/22 08:02:17;;;;;;;6.10;2.47;;;24.80;81.10;;;;;;10391062;28;20203;-88
2023/07/22 08:07:19;;;;;;;2.10;1.87;;;25.20;78.20;;;;;;10379111;28;20269;-88
2023/07/22 08:12:23;;;;;;;2.30;2.10;;;25.70;75.40;;;;;;10369263;28;20203;-87
2023/07/22 08:17:25;;;;;;;2.70;2.10;;;26.10;70.20;;;;;;10377791;28;20226;-88
2023/07/22 08:22:27;;;;;;;2.60;2.40;;;26.40;68.20;;;;;;10412859;28;20207;-86
2023/07/22 08:27:31;;;;;;;2.10;2.00;;;26.90;66.80;;;;;;10394314;28;20223;-86
2023/07/22 08:32:33;;;;;;;2.07;1.97;;;27.20;63.60;;;;;;10366457;28;20198;-85
2023/07/22 08:37:35;;;;;;;2.30;2.00;;;27.40;63.80;;;;;;10374348;28;20522;-86
2023/07/22 08:42:39;;;;;;;2.10;2.00;;;27.80;64.40;;;;;;10374086;28;20528;-85
2023/07/22 08:47:47;;;;;;;3.60;2.17;;;28.10;59.90;;;;;;10383315;28;20288;-86
2023/07/22 08:52:49;;;;;;;1.63;1.53;;;28.40;61.30;;;;;;10380074;28;20285;-85
2023/07/22 08:57:53;;;;;;;3.03;2.67;;;28.70;60.40;;;;;;10357685;28;20293;-87
2023/07/22 09:02:55;;;;;;;2.20;1.77;;;29.00;56.90;;;;;;10379770;28;20277;-88
2023/07/22 09:07:59;;;;;;;9.50;2.50;;;29.20;57.90;;;;;;10395932;23;20255;-82
2023/07/22 09:13:03;;;;;;;2.77;2.60;;;28.90;54.60;;;;;;10369725;28;20196;-82
2023/07/22 09:18:05;;;;;;;2.17;1.97;;;28.40;55.30;;;;;;10385048;28;20219;-82
2023/07/22 09:23:08;;;;;;;2.83;2.37;;;27.80;56.50;;;;;;10381898;28;20231;-82
2023/07/22 09:28:11;;;;;;;5.77;2.60;;;27.40;56.50;;;;;;10379413;28;20210;-82
2023/07/22 09:33:22;;;;;;;2.70;2.00;;;27.20;57.40;;;;;;10386915;28;20485;-82
2023/07/22 09:38:25;;;;;;;1.47;1.37;;;27.10;57.30;;;;;;10369562;28;20247;-83
2023/07/22 09:43:30;;;;;;;2.20;2.10;;;26.90;56.10;;;;;;10366881;28;20208;-81
2023/07/22 09:48:41;;;;;;;1.60;1.50;;;26.80;58.40;;;;;;10379587;28;20211;-81
2023/07/22 09:53:47;;;;;;;3.13;2.10;;;26.90;58.30;;;;;;10382263;28;20204;-81
2023/07/22 09:58:52;;;;;;;2.63;2.43;;;27.00;58.40;;;;;;10380948;28;20591;-82
2023/07/22 10:03:56;;;;;;;2.50;2.30;;;27.30;57.20;;;;;;10379525;28;20200;-81
2023/07/22 10:09:02;;;;;;;2.13;2.03;;;27.80;58.30;;;;;;10379959;28;20224;-82
2023/07/22 10:14:06;;;;;;;2.20;1.80;;;28.50;56.50;;;;;;10381311;28;20201;-80
2023/07/22 10:19:10;;;;;;;2.10;2.00;;;29.70;54.60;;;;;;10385552;28;20223;-82
2023/07/22 10:24:13;;;;;;;2.27;2.17;;;30.30;51.50;;;;;;10370874;28;20624;-82
2023/07/22 10:29:17;;;;;;;2.07;1.97;;;30.00;51.60;;;;;;10381468;28;20215;-83
2023/07/22 10:34:22;;;;;;;2.30;2.10;;;29.40;52.90;;;;;;10377070;28;20228;-82
2023/07/22 10:39:28;;;;;;;2.00;1.90;;;28.70;54.70;;;;;;10378733;28;20670;-83
2023/07/22 10:44:33;;;;;;;1.90;1.80;;;28.40;55.20;;;;;;10385050;28;20194;-82
2023/07/22 10:49:45;;;;;;;1.73;1.63;;;28.00;55.40;;;;;;10378054;28;20275;-82
2023/07/22 10:54:49;;;;;;;1.80;1.70;;;27.70;55.20;;;;;;10379639;28;20202;-82
2023/07/22 10:59:53;;;;;;;1.60;1.50;;;27.40;55.10;;;;;;10381584;28;20230;-83
2023/07/22 11:04:59;;;;;;;2.87;2.23;;;27.20;56.10;;;;;;10374680;28;20287;-82
2023/07/22 11:10:15;;;;;;;2.53;2.33;;;27.00;54.60;;;;;;10370063;28;20220;-83
2023/07/22 11:15:19;;;;;;;1.93;1.83;;;27.00;55.30;;;;;;10354624;28;20204;-82
2023/07/22 11:20:23;;;;;;;4.20;2.23;;;27.00;54.60;;;;;;10370088;28;20274;-81
2023/07/22 11:25:27;;;;;;;2.47;2.27;;;26.90;55.90;;;;;;10361651;28;20204;-82
2023/07/22 11:30:30;;;;;;;1.90;1.80;;;26.70;56.60;;;;;;10353546;28;20239;-82
2023/07/22 11:35:32;;;;;;;2.43;2.13;;;26.60;56.60;;;;;;10348283;28;20235;-82
2023/07/22 11:40:35;;;;;;;3.10;2.80;;;26.60;57.60;;;;;;10366931;28;20273;-83
2023/07/22 11:45:45;;;;;;;2.07;1.97;;;26.60;57.00;;;;;;10357665;28;20238;-83
2023/07/22 11:50:47;;;;;;;3.63;2.60;;;26.50;57.90;;;;;;10362767;28;20220;-82
2023/07/22 11:55:53;;;;;;;2.73;2.63;;;26.30;58.60;;;;;;10367409;28;20269;-82
2023/07/22 12:01:06;;;;;;;2.27;2.10;;;26.10;56.50;;;;;;10355612;28;20276;-82
2023/07/22 12:06:09;;;;;;;2.67;2.47;;;25.80;56.20;;;;;;10373491;28;20666;-83
2023/07/22 12:11:18;;;;;;;2.20;2.10;;;25.60;58.80;;;;;;10371142;28;20266;-82
2023/07/22 12:16:26;;;;;;;2.03;1.93;;;25.70;59.40;;;;;;10379911;28;20206;-84
2023/07/22 12:21:28;;;;;;;2.50;2.40;;;25.70;59.10;;;;;;10372686;28;20223;-83
2023/07/22 12:26:30;;;;;;;2.47;2.30;;;25.80;60.70;;;;;;10376150;28;20200;-84
2023/07/22 12:31:34;;;;;;;2.10;2.00;;;25.90;59.10;;;;;;10362938;28;20231;-82
2023/07/22 12:36:36;;;;;;;2.63;1.90;;;25.80;59.60;;;;;;10354089;28;20196;-81
2023/07/22 12:41:39;;;;;;;2.30;2.10;;;25.70;59.00;;;;;;10350570;28;20228;-80
2023/07/22 12:46:43;;;;;;;2.60;2.37;;;25.60;59.60;;;;;;10342607;28;20200;-79
2023/07/22 12:51:46;;;;;;;2.13;2.03;;;25.60;58.00;;;;;;10359663;28;20577;-81
2023/07/22 12:56:48;;;;;;;2.43;2.33;;;25.70;60.00;;;;;;10355223;28;20268;-79
2023/07/22 13:01:52;;;;;;;2.37;2.27;;;25.80;58.10;;;;;;10361804;28;20245;-79
2023/07/22 13:06:54;;;;;;;2.63;2.43;;;25.90;58.00;;;;;;10361090;28;20233;-79
2023/07/22 13:11:56;;;;;;;2.57;2.37;;;26.00;59.70;;;;;;10360836;28;20220;-79
2023/07/22 13:16:59;;;;;;;2.83;2.63;;;26.00;58.40;;;;;;10363679;28;20192;-79
2023/07/22 13:22:01;;;;;;;3.37;2.17;;;26.00;56.70;;;;;;10363664;28;20280;-79
2023/07/22 13:27:05;;;;;;;2.40;2.20;;;25.90;57.90;;;;;;10364398;28;20223;-79
2023/07/22 13:32:09;;;;;;;3.60;2.37;;;26.00;57.90;;;;;;10364703;28;20230;-80
2023/07/22 13:37:11;;;;;;;2.47;2.37;;;26.00;57.70;;;;;;10358408;28;20231;-79
2023/07/22 13:42:13;;;;;;;3.03;2.83;;;26.10;57.30;;;;;;10363540;28;20226;-79
2023/07/22 13:47:16;;;;;;;2.40;2.30;;;26.10;56.50;;;;;;10365998;28;20196;-80
2023/07/22 13:52:19;;;;;;;3.53;3.23;;;26.20;56.10;;;;;;10362392;28;20216;-80
2023/07/22 13:57:21;;;;;;;2.63;2.43;;;26.30;55.50;;;;;;10365132;28;20199;-80
2023/07/22 14:02:24;;;;;;;3.07;2.87;;;26.40;55.50;;;;;;10359643;28;20750;-80
2023/07/22 14:07:26;;;;;;;2.90;2.70;;;26.50;54.50;;;;;;10371096;28;20664;-80
2023/07/22 14:12:28;;;;;;;2.97;2.77;;;26.60;57.00;;;;;;10369066;28;20212;-80
2023/07/22 14:17:33;;;;;;;2.70;2.50;;;26.50;56.40;;;;;;10363775;28;20263;-80
2023/07/22 14:22:35;;;;;;;2.97;2.77;;;26.40;54.70;;;;;;10366748;28;20255;-80
2023/07/22 14:27:39;;;;;;;2.70;2.50;;;26.40;55.70;;;;;;10366114;28;20230;-79
2023/07/22 14:32:43;;;;;;;2.80;2.60;;;26.50;55.50;;;;;;10343193;28;20201;-81
2023/07/22 14:37:45;;;;;;;2.57;2.37;;;26.60;56.00;;;;;;10367626;28;20231;-79
2023/07/22 14:42:48;;;;;;;6.30;2.63;;;26.50;57.00;;;;;;10376408;28;20692;-81
2023/07/22 14:47:51;;;;;;;4.93;2.93;;;26.40;56.70;;;;;;10370914;28;20250;-79
2023/07/22 14:52:53;;;;;;;3.50;2.67;;;26.40;56.30;;;;;;10359610;28;20196;-79
2023/07/22 14:57:55;;;;;;;4.07;3.33;;;26.20;55.30;;;;;;10370544;28;20238;-80
2023/07/22 15:03:22;;;;;;;2.97;2.77;;;26.20;57.00;;;;;;10357324;28;20217;-80
2023/07/22 15:08:27;;;;;;;2.87;2.60;;;26.20;55.60;;;;;;10386293;22;20291;-90
2023/07/22 15:13:29;;;;;;;2.63;2.40;;;26.30;56.60;;;;;;10392428;28;20236;-92
2023/07/22 15:18:33;;;;;;;5.70;3.20;;;26.30;56.30;;;;;;10391168;28;20222;-90
2023/07/22 15:23:37;;;;;;;3.67;3.37;;;26.20;55.70;;;;;;10381093;28;20187;-89
2023/07/22 15:28:40;;;;;;;3.30;3.10;;;26.30;55.30;;;;;;10380195;28;20223;-90
2023/07/22 15:33:44;;;;;;;3.10;2.90;;;26.30;55.30;;;;;;10375781;28;20866;-93
2023/07/22 15:38:46;;;;;;;3.87;2.80;;;26.30;56.80;;;;;;10351360;28;20228;-91
2023/07/22 15:43:48;;;;;;;2.83;2.63;;;26.40;56.70;;;;;;10351175;28;20218;-91
2023/07/22 15:48:52;;;;;;;9.27;7.00;;;26.40;55.30;;;;;;10351939;28;20227;-93
2023/07/22 15:53:54;;;;;;;5.03;3.90;;;26.40;57.40;;;;;;10381974;28;20223;-87
2023/07/22 15:58:59;;;;;;;3.33;2.43;;;26.40;58.00;;;;;;10339557;28;20212;-93
2023/07/22 16:04:03;;;;;;;3.40;3.10;;;26.40;56.40;;;;;;10373358;28;20200;-91
2023/07/22 16:09:07;;;;;;;3.80;3.07;;;26.40;59.10;;;;;;10360322;28;20235;-95
2023/07/22 16:14:10;;;;;;;3.10;2.70;;;26.30;59.80;;;;;;10360887;28;20196;-94
2023/07/22 16:19:13;;;;;;;3.30;3.00;;;26.20;57.00;;;;;;10355266;28;20231;-95
2023/07/22 16:24:16;;;;;;;4.23;2.80;;;26.20;57.30;;;;;;10379867;28;20211;-91
2023/07/22 16:29:28;;;;;;;2.97;2.77;;;26.20;58.60;;;;;;10365854;28;20291;-89
2023/07/22 16:34:35;;;;;;;3.83;3.53;;;26.20;58.70;;;;;;10366728;28;20227;-94
2023/07/22 16:39:37;;;;;;;10.53;4.03;;;26.10;59.70;;;;;;10371199;28;20230;-91
2023/07/22 16:44:40;;;;;;;3.20;3.00;;;26.10;59.20;;;;;;10369119;28;20214;-93
2023/07/22 16:49:43;;;;;;;3.60;3.30;;;26.00;59.30;;;;;;10369775;28;20220;-93
2023/07/22 16:54:46;;;;;;;4.33;3.20;;;25.90;58.60;;;;;;10367526;28;20215;-92
2023/07/22 16:59:48;;;;;;;3.20;2.77;;;25.90;59.60;;;;;;10348163;28;20224;-94
2023/07/22 17:04:53;;;;;;;3.10;2.90;;;25.80;58.50;;;;;;10369272;28;20200;-94
2023/07/22 17:09:55;;;;;;;3.40;3.10;;;25.80;57.10;;;;;;10367340;28;20295;-92
2023/07/22 17:14:57;;;;;;;3.00;2.70;;;25.60;58.10;;;;;;10369339;28;20196;-94
2023/07/22 17:20:01;;;;;;;3.30;3.00;;;25.60;58.00;;;;;;10376875;28;20252;-92
2023/07/22 17:25:03;;;;;;;2.83;2.63;;;25.50;58.50;;;;;;10368085;28;20196;-93
2023/07/22 17:30:06;;;;;;;4.10;2.60;;;25.30;62.60;;;;;;10397588;28;20227;-93
2023/07/22 17:35:10;;;;;;;3.73;3.43;;;25.20;61.80;;;;;;10382804;28;20212;-94
2023/07/22 17:40:13;;;;;;;3.10;2.90;;;25.10;62.70;;;;;;10397311;28;20239;-92
2023/07/22 17:45:15;;;;;;;3.60;3.30;;;25.00;58.20;;;;;;10370495;28;20208;-92
2023/07/22 17:50:19;;;;;;;3.30;3.10;;;25.00;59.00;;;;;;10366671;28;20219;-93
2023/07/22 17:55:21;;;;;;;3.20;3.00;;;24.90;59.40;;;;;;10366514;28;20188;-94
2023/07/22 18:00:23;;;;;;;2.70;2.50;;;24.80;59.70;;;;;;10373707;28;20223;-93
2023/07/22 18:05:29;;;;;;;3.60;3.30;;;24.80;60.00;;;;;;10366188;28;20192;-93
2023/07/22 18:10:31;;;;;;;3.60;3.30;;;24.70;58.60;;;;;;10368502;28;20267;-93
2023/07/22 18:15:33;;;;;;;4.30;3.90;;;24.70;61.40;;;;;;10369021;28;20205;-94
2023/07/22 18:20:37;;;;;;;3.80;3.50;;;24.60;65.90;;;;;;10380300;28;20235;-93
2023/07/22 18:25:39;;;;;;;4.27;3.70;;;24.60;69.30;;;;;;10368866;28;20191;-93
2023/07/22 18:30:42;;;;;;;8.43;3.47;;;24.40;67.10;;;;;;10366691;28;20248;-93
2023/07/22 18:35:49;;;;;;;3.53;3.23;;;24.40;69.90;;;;;;10367225;28;20224;-94
2023/07/22 18:40:52;;;;;;;3.70;3.40;;;24.30;72.40;;;;;;10367700;28;20220;-93
2023/07/22 18:45:54;;;;;;;5.23;4.73;;;24.20;68.90;;;;;;10368538;28;20264;-93
2023/07/22 18:50:58;;;;;;;4.20;3.80;;;24.10;64.10;;;;;;10364574;28;20203;-92
2023/07/22 18:56:00;;;;;;;4.70;4.30;;;24.10;63.70;;;;;;10364592;28;20208;-94
2023/07/22 19:01:03;;;;;;;4.53;3.53;;;24.00;63.90;;;;;;10364300;28;20211;-90
2023/07/22 19:06:07;;;;;;;2.70;2.50;;;23.80;63.80;;;;;;10363984;28;20222;-93
2023/07/22 19:11:11;;;;;;;3.50;3.30;;;23.70;63.40;;;;;;10360988;28;20248;-94
2023/07/22 19:16:13;;;;;;;6.13;5.63;;;23.50;63.50;;;;;;10363334;28;20263;-93
2023/07/22 19:21:17;;;;;;;3.97;3.60;;;23.30;63.40;;;;;;10357050;28;20266;-93
2023/07/22 19:26:19;;;;;;;3.13;2.93;;;23.10;63.30;;;;;;10363787;28;20701;-94
2023/07/22 19:31:21;;;;;;;3.20;3.00;;;23.00;63.60;;;;;;10377472;28;20235;-92
2023/07/22 19:36:25;;;;;;;3.40;3.10;;;22.90;63.80;;;;;;10362431;28;20207;-92
2023/07/22 19:41:27;;;;;;;3.87;3.57;;;22.70;63.80;;;;;;10378161;28;20231;-92
2023/07/22 19:46:29;;;;;;;6.30;5.80;;;22.60;63.70;;;;;;10363669;28;20207;-91
2023/07/22 19:51:33;;;;;;;5.40;4.90;;;22.40;63.80;;;;;;10363199;28;20239;-88
2023/07/22 19:56:35;;;;;;;8.33;7.53;;;22.40;64.30;;;;;;10363666;28;20238;-91
2023/07/22 20:01:37;;;;;;;6.40;5.90;;;22.40;64.70;;;;;;10369685;28;20304;-92
2023/07/22 20:06:41;;;;;;;4.33;4.00;;;22.40;65.30;;;;;;10361147;28;20223;-91
2023/07/22 20:11:43;;;;;;;4.13;3.73;;;22.40;65.90;;;;;;10346166;28;20235;-92
2023/07/22 20:16:45;;;;;;;4.73;4.03;;;22.50;65.80;;;;;;10361448;28;20247;-88
2023/07/22 20:21:49;;;;;;;3.70;3.40;;;22.50;64.80;;;;;;10361547;28;20269;-93
2023/07/22 20:26:51;;;;;;;3.30;3.00;;;22.40;64.80;;;;;;10365765;28;20192;-93
2023/07/22 20:31:53;;;;;;;4.47;4.07;;;22.40;64.10;;;;;;10378005;28;20222;-93
2023/07/22 20:36:56;;;;;;;4.10;3.70;;;22.40;65.00;;;;;;10363486;28;20208;-90
2023/07/22 20:41:59;;;;;;;3.50;3.20;;;22.40;65.00;;;;;;10354325;28;20220;-91
2023/07/22 20:47:04;;;;;;;5.30;4.40;;;22.40;65.40;;;;;;10357453;28;21703;-92
2023/07/22 20:52:08;;;;;;;5.20;4.40;;;22.40;67.50;;;;;;10355394;28;20231;-91
2023/07/22 20:57:11;;;;;;;4.40;4.00;;;22.50;66.50;;;;;;10353674;28;20206;-92
2023/07/22 21:02:13;;;;;;;4.23;3.93;;;22.50;67.70;;;;;;10347719;28;20247;-91
2023/07/22 21:07:16;;;;;;;4.27;3.87;;;22.50;68.10;;;;;;10356294;28;20207;-91
2023/07/22 21:12:18;;;;;;;6.30;4.50;;;22.50;67.20;;;;;;10358782;28;20300;-93
2023/07/22 21:17:22;;;;;;;5.43;4.93;;;22.60;69.10;;;;;;10364309;28;20207;-90
2023/07/22 21:22:25;;;;;;;5.60;5.07;;;22.60;68.70;;;;;;10361475;28;20228;-91
2023/07/22 21:27:27;;;;;;;5.13;4.63;;;22.60;69.00;;;;;;10360601;28;20192;-89
2023/07/22 21:32:29;;;;;;;4.90;4.50;;;22.60;69.10;;;;;;10367418;28;20211;-91
2023/07/22 21:37:33;;;;;;;5.20;4.70;;;22.60;70.00;;;;;;10372616;28;20200;-91
2023/07/22 21:42:36;;;;;;;4.50;4.10;;;22.60;69.00;;;;;;10374646;28;20236;-91
2023/07/22 21:47:38;;;;;;;5.13;4.63;;;22.50;69.20;;;;;;10363675;28;20202;-90
2023/07/22 21:52:42;;;;;;;4.40;4.00;;;22.50;69.40;;;;;;10360218;28;20234;-90
2023/07/22 21:57:46;;;;;;;4.27;3.97;;;22.40;70.60;;;;;;10354526;28;20208;-92
2023/07/22 22:02:48;;;;;;;4.03;3.63;;;22.30;69.70;;;;;;10365890;28;20420;-92
2023/07/22 22:07:51;;;;;;;4.67;3.90;;;22.30;69.20;;;;;;10362330;28;20192;-92
2023/07/22 22:12:54;;;;;;;5.30;3.93;;;22.30;71.00;;;;;;10354202;28;20258;-90
2023/07/22 22:17:56;;;;;;;6.70;3.60;;;22.20;72.10;;;;;;10374181;28;20199;-92
2023/07/22 22:23:02;;;;;;;4.20;3.80;;;22.20;69.50;;;;;;10356459;28;20605;-91
2023/07/22 22:28:05;;;;;;;3.90;3.67;;;22.20;69.90;;;;;;10358537;28;20210;-93
2023/07/22 22:33:07;;;;;;;5.17;3.77;;;22.20;68.80;;;;;;10359966;28;20204;-90
2023/07/22 22:38:11;;;;;;;4.07;3.67;;;22.20;69.80;;;;;;10375045;28;20223;-92
2023/07/22 22:43:13;;;;;;;4.47;4.07;;;22.30;70.80;;;;;;10355598;28;20243;-89
2023/07/22 22:48:15;;;;;;;4.07;3.77;;;22.30;71.00;;;;;;10359015;28;20232;-90
2023/07/22 22:53:19;;;;;;;3.70;3.40;;;22.20;69.80;;;;;;10359739;28;20196;-91
2023/07/22 22:58:21;;;;;;;4.30;3.90;;;22.20;69.90;;;;;;10355904;28;20559;-90
2023/07/22 23:03:23;;;;;;;3.50;3.20;;;22.20;68.20;;;;;;10356896;28;20251;-91
2023/07/22 23:08:27;;;;;;;5.67;3.30;;;22.20;66.70;;;;;;10356160;28;20270;-92
2023/07/22 23:13:29;;;;;;;3.87;3.57;;;22.20;67.50;;;;;;10356985;28;20203;-92
2023/07/22 23:18:31;;;;;;;3.67;3.30;;;22.20;68.30;;;;;;10354865;28;20834;-91
2023/07/22 23:23:35;;;;;;;3.23;3.03;;;22.20;68.40;;;;;;10358430;28;20220;-91
2023/07/22 23:28:37;;;;;;;3.30;2.90;;;22.20;68.70;;;;;;10376196;28;20214;-90
2023/07/22 23:33:39;;;;;;;3.30;2.90;;;22.10;68.30;;;;;;10371864;28;20180;-90
2023/07/22 23:38:43;;;;;;;5.17;3.30;;;22.10;68.60;;;;;;10356756;28;20215;-89
2023/07/22 23:43:45;;;;;;;3.63;3.33;;;22.10;69.00;;;;;;10356643;28;20220;-91
2023/07/22 23:48:47;;;;;;;3.20;2.90;;;22.10;68.90;;;;;;10349434;28;20299;-90
2023/07/22 23:53:51;;;;;;;3.00;2.50;;;22.10;68.90;;;;;;10366887;28;20203;-89
2023/07/22 23:58:53;;;;;;;3.70;3.40;;;22.10;67.10;;;;;;10368630;28;20232;-91
